Time;durP1;ratioP1;P1;durP2;ratioP2;P2;SDS_P1;SDS_P2;PMS_P1;PMS_P2;Temp;Humidity;BMP_temperature;BMP_pressure;BME280_temperature;BME280_humidity;BME280_pressure;Samples;Min_cycle;Max_cycle;Signal;HPM_P1;HPM_P2
2022/11/17 00:00:47;;;;;;;;;;;11.20;65.70;;;6.64;100.00;93916.00;5016691;28;20280;-47
2022/11/17 00:03:19;;;;;;;;;;;11.20;65.60;;;6.73;100.00;93914.31;5028833;28;20275;-46
2022/11/17 00:05:53;;;;;;;;;;;11.30;65.70;;;6.77;100.00;93903.97;5012743;28;19909;-50
2022/11/17 00:08:22;;;;;;;;;;;11.30;65.70;;;6.73;100.00;93898.44;5030569;28;19913;-47
2022/11/17 00:10:51;;;;;;;;;;;11.40;65.60;;;6.79;100.00;93906.31;5029936;28;19913;-47
2022/11/17 00:16:20;;;;;;;;;;;11.40;65.60;;;6.81;100.00;93909.50;5001211;28;20019;-46
2022/11/17 00:21:33;;;;;;;;;;;11.40;65.50;;;6.69;100.00;93909.88;5004034;28;19916;-53
2022/11/17 00:23:58;;;;;;;;;;;11.40;65.50;;;6.77;100.00;93900.50;5011507;28;19909;-48
2022/11/17 00:26:31;;;;;;;;;;;11.40;65.50;;;6.73;100.00;93900.28;5009718;28;20375;-46
2022/11/17 00:29:03;;;;;;;;;;;11.40;65.50;;;6.77;100.00;93903.97;5042856;28;19999;-48
2022/11/17 00:34:22;;;;;;;;;;;11.40;65.50;;;6.85;100.00;93921.09;5028924;28;20381;-48
2022/11/17 00:36:54;;;;;;;;;;;11.40;65.50;;;6.89;100.00;93922.09;5050600;28;20010;-48
2022/11/17 00:39:22;;;;;;;;;;;11.50;65.60;;;6.90;100.00;93923.69;5023340;28;19915;-50
2022/11/17 00:41:51;;;;;;;;;;;11.50;65.60;;;6.90;100.00;93921.81;4990288;28;20361;-46
2022/11/17 00:44:17;;;;;;;;;;;11.50;65.50;;;6.93;100.00;93912.53;5013172;28;20363;-46
2022/11/17 00:46:43;;;;;;;;;;;11.50;65.50;;;6.95;100.00;93916.44;5011135;28;19913;-48
2022/11/17 00:49:20;;;;;;;;;;;11.60;65.60;;;6.97;100.00;93916.19;4997788;28;19953;-47
2022/11/17 00:51:46;;;;;;;;;;;11.60;65.50;;;6.99;100.00;93910.59;5005075;28;19917;-49
2022/11/17 00:54:18;;;;;;;;;;;11.70;65.50;;;7.00;100.00;93898.97;4999610;28;19948;-46
2022/11/17 00:56:44;;;;;;;;;;;11.70;65.50;;;6.98;100.00;93899.22;5027425;28;19948;-55
2022/11/17 00:59:19;;;;;;;;;;;11.70;65.40;;;6.93;99.79;93902.72;5008198;28;20343;-46
2022/11/17 01:01:51;;;;;;;;;;;11.70;65.30;;;7.02;99.87;93912.69;5008201;28;19916;-48
2022/11/17 01:04:17;;;;;;;;;;;11.70;65.30;;;7.06;98.56;93901.25;5022638;28;20383;-47
2022/11/17 01:06:47;;;;;;;;;;;11.70;65.30;;;7.13;98.57;93893.75;5030118;28;19908;-48
2022/11/17 01:09:22;;;;;;;;;;;11.80;65.40;;;7.18;98.92;93900.88;5028118;28;19909;-52
2022/11/17 01:11:51;;;;;;;;;;;11.80;65.40;;;7.21;98.69;93895.00;5009118;28;19917;-46
2022/11/17 01:14:27;;;;;;;;;;;11.80;65.30;;;7.23;99.57;93892.06;4990021;28;19944;-51
2022/11/17 01:16:54;;;;;;;;;;;11.90;65.30;;;7.25;99.35;93892.56;5029283;28;19916;-55
2022/11/17 01:19:22;;;;;;;;;;;11.90;65.30;;;7.16;99.60;93879.94;4995718;28;20001;-51
2022/11/17 01:21:54;;;;;;;;;;;11.90;65.20;;;7.19;99.13;93879.38;5003069;28;20011;-53
2022/11/17 01:24:19;;;;;;;;;;;11.90;65.20;;;7.17;98.38;93864.84;5012329;28;19908;-53
2022/11/17 01:26:46;;;;;;;;;;;11.90;66.00;;;7.21;98.08;93851.81;5004461;28;19974;-50
2022/11/17 01:29:18;;;;;;;;;;;11.90;65.20;;;7.26;97.08;93849.09;5012824;28;19909;-49
2022/11/17 01:31:49;;;;;;;;;;;11.90;65.20;;;7.34;96.28;93837.88;5030046;28;19951;-48
2022/11/17 01:34:18;;;;;;;;;;;11.90;65.30;;;7.39;95.27;93832.50;5029120;28;19999;-54
2022/11/17 01:39:30;;;;;;;;;;;11.90;65.30;;;7.43;95.75;93825.56;5026882;28;19955;-50
2022/11/17 01:41:57;;;;;;;;;;;11.90;65.30;;;7.45;95.40;93827.94;5015909;28;19923;-50
2022/11/17 01:44:35;;;;;;;;;;;12.00;65.30;;;7.44;94.74;93813.09;5013681;28;19956;-53
2022/11/17 01:47:40;;;;;;;;;;;12.00;65.20;;;7.40;95.22;93818.19;5011162;28;19908;-55
2022/11/17 01:50:15;;;;;;;;;;;11.90;65.00;;;7.39;94.69;93816.59;4984394;28;19959;-53
2022/11/17 01:52:49;;;;;;;;;;;11.90;65.00;;;7.38;94.58;93807.88;5012990;28;19954;-48
2022/11/17 01:55:18;;;;;;;;;;;12.00;65.00;;;7.33;94.79;93797.38;5035776;28;20352;-50
2022/11/17 01:58:20;;;;;;;;;;;11.90;64.90;;;7.28;95.86;93784.19;4998480;28;20302;-50
2022/11/17 02:00:46;;;;;;;;;;;11.90;64.90;;;7.24;95.40;93779.75;5001930;28;19913;-51
2022/11/17 02:03:19;;;;;;;;;;;11.90;64.90;;;7.21;94.84;93775.81;5007926;28;20004;-50
2022/11/17 02:06:18;;;;;;;;;;;11.80;64.80;;;7.20;94.75;93766.28;5020775;28;19909;-55
2022/11/17 02:08:48;;;;;;;;;;;11.80;65.00;;;7.22;94.63;93752.78;5005430;28;20283;-54
2022/11/17 02:11:20;;;;;;;;;;;11.80;65.00;;;7.27;94.00;93734.16;4993358;28;20017;-51
2022/11/17 02:13:47;;;;;;;;;;;11.80;65.10;;;7.29;94.19;93713.47;5000736;28;20132;-52
2022/11/17 02:16:16;;;;;;;;;;;11.80;65.00;;;7.30;93.81;93693.84;4983154;28;20287;-51
2022/11/17 02:18:45;;;;;;;;;;;11.80;65.00;;;7.25;93.05;93693.94;5016760;28;19913;-54
2022/11/17 02:21:26;;;;;;;;;;;11.80;64.90;;;7.31;91.95;93682.19;5010409;28;19909;-54
2022/11/17 02:24:27;;;;;;;;;;;11.90;65.00;;;7.40;92.29;93669.84;5013366;28;20347;-54
2022/11/17 02:27:36;;;;;;;;;;;11.90;65.10;;;7.44;90.81;93694.69;5004163;28;20471;-55
2022/11/17 02:30:12;;;;;;;;;;;11.90;65.00;;;7.52;91.83;93717.88;5013156;28;20367;-55
2022/11/17 02:33:37;;;;;;;;;;;12.00;65.20;;;7.53;92.80;93729.25;5008532;28;20011;-53
2022/11/17 02:36:13;;;;;;;;;;;12.00;65.00;;;7.53;93.85;93737.19;4998251;28;19916;-55
2022/11/17 02:38:47;;;;;;;;;;;12.00;64.90;;;7.50;94.42;93754.47;5009792;28;19915;-54
2022/11/17 02:41:33;;;;;;;;;;;12.00;64.80;;;7.39;95.91;93772.34;5022500;28;19919;-54
2022/11/17 02:44:30;;;;;;;;;;;12.00;64.80;;;7.31;97.00;93818.06;5016221;28;19974;-54
2022/11/17 02:47:24;;;;;;;;;;;11.90;64.60;;;7.29;96.79;93803.50;5018772;28;19916;-52
2022/11/17 02:50:09;;;;;;;;;;;11.90;64.60;;;7.28;97.81;93809.91;5033102;28;19947;-54
2022/11/17 02:52:35;;;;;;;;;;;11.80;64.70;;;7.24;98.48;93806.22;5010645;28;19914;-52
2022/11/17 02:55:09;;;;;;;;;;;11.80;64.80;;;7.21;98.99;93802.31;4991668;28;19913;-53
2022/11/17 02:57:40;;;;;;;;;;;11.70;64.90;;;7.19;99.51;93828.28;5001701;28;19918;-53
2022/11/17 03:00:17;;;;;;;;;;;11.70;65.00;;;7.17;100.00;93817.19;5010737;28;19936;-54
2022/11/17 03:03:37;;;;;;;;;;;11.60;65.00;;;7.15;100.00;93806.09;5007129;28;19936;-51
2022/11/17 03:06:17;;;;;;;;;;;11.60;65.20;;;7.11;100.00;93803.25;5011107;28;19908;-54
2022/11/17 03:08:51;;;;;;;;;;;11.60;65.40;;;7.08;100.00;93795.88;5011942;28;20000;-48
2022/11/17 03:11:44;;;;;;;;;;;11.50;65.40;;;7.06;100.00;93771.53;5028989;28;20022;-51
2022/11/17 03:15:11;;;;;;;;;;;11.50;65.50;;;7.05;100.00;93763.84;5030851;28;19909;-54
2022/11/17 03:18:24;;;;;;;;;;;11.50;65.60;;;7.03;100.00;93758.88;5009320;28;19913;-54
2022/11/17 03:21:03;;;;;;;;;;;11.40;65.70;;;7.00;100.00;93759.44;5006646;28;19908;-54
2022/11/17 03:24:00;;;;;;;;;;;11.40;65.70;;;6.99;100.00;93751.75;5012537;28;20379;-54
2022/11/17 03:26:43;;;;;;;;;;;11.40;65.80;;;6.98;100.00;93745.69;5001206;28;20007;-51
2022/11/17 03:29:16;;;;;;;;;;;11.40;66.00;;;6.97;100.00;93744.13;5013319;28;19908;-54
2022/11/17 03:31:55;;;;;;;;;;;11.40;66.00;;;6.95;100.00;93748.91;5030800;28;19919;-53
2022/11/17 03:34:26;;;;;;;;;;;11.40;66.00;;;6.95;100.00;93756.84;5024873;28;19912;-51
2022/11/17 03:37:01;;;;;;;;;;;11.40;66.00;;;6.95;100.00;93757.63;5030869;28;20379;-53
2022/11/17 03:39:35;;;;;;;;;;;11.40;66.10;;;6.96;100.00;93763.72;5026355;28;19913;-54
2022/11/17 03:42:12;;;;;;;;;;;11.40;66.20;;;6.95;100.00;93778.81;5011771;28;19940;-54
2022/11/17 03:44:49;;;;;;;;;;;11.50;66.30;;;6.94;100.00;93785.19;5030434;28;20355;-54
2022/11/17 03:47:22;;;;;;;;;;;11.50;66.30;;;6.95;100.00;93792.03;5017269;28;19934;-51
2022/11/17 03:50:32;;;;;;;;;;;11.50;66.30;;;6.95;100.00;93775.38;5031157;28;19917;-53
2022/11/17 03:53:05;;;;;;;;;;;11.50;66.40;;;6.98;100.00;93768.72;5012198;28;19913;-54
2022/11/17 03:55:50;;;;;;;;;;;11.50;66.40;;;6.95;100.00;93754.19;5007229;28;19910;-54
2022/11/17 03:58:21;;;;;;;;;;;11.50;66.40;;;6.94;100.00;93758.72;5032043;23;19922;-55
2022/11/17 04:00:52;;;;;;;;;;;11.50;66.40;;;6.94;100.00;93758.72;4990688;28;20009;-57
2022/11/17 04:03:36;;;;;;;;;;;11.50;66.40;;;6.95;100.00;93740.97;4993564;28;19913;-55
2022/11/17 04:06:03;;;;;;;;;;;11.50;66.50;;;6.94;100.00;93731.47;4992629;28;20008;-58
2022/11/17 04:08:31;;;;;;;;;;;11.50;66.60;;;6.92;100.00;93731.72;4990668;28;20279;-58
2022/11/17 04:16:25;;;;;;;;;;;11.40;66.70;;;6.94;100.00;93742.03;5003274;28;19964;-55
2022/11/17 04:18:51;;;;;;;;;;;11.40;66.80;;;6.94;100.00;93742.81;5009652;28;19920;-55
2022/11/17 04:21:20;;;;;;;;;;;11.40;66.90;;;6.95;100.00;93739.09;5007457;28;19913;-54
2022/11/17 04:23:46;;;;;;;;;;;11.50;66.90;;;6.96;100.00;93734.63;4996951;28;19914;-55
2022/11/17 04:29:02;;;;;;;;;;;11.50;67.00;;;6.99;100.00;93736.69;4997238;28;19916;-56
2022/11/17 04:31:30;;;;;;;;;;;11.50;67.00;;;7.01;100.00;93739.03;4997289;28;20291;-59
2022/11/17 04:34:02;;;;;;;;;;;11.60;67.00;;;7.03;100.00;93739.53;5008425;28;19967;-58
2022/11/17 04:36:42;;;;;;;;;;;11.60;67.00;;;7.00;100.00;93748.84;5011143;28;19909;-59
2022/11/17 04:39:08;;;;;;;;;;;11.60;67.00;;;7.02;100.00;93730.00;5009140;28;19909;-53
2022/11/17 04:41:53;;;;;;;;;;;11.60;67.00;;;7.02;100.00;93728.19;5009743;28;20268;-55
2022/11/17 04:44:26;;;;;;;;;;;11.60;67.00;;;7.03;100.00;93748.28;5011640;28;19909;-56
2022/11/17 04:46:53;;;;;;;;;;;11.60;67.10;;;7.04;100.00;93743.75;5008824;28;20083;-55
2022/11/17 04:49:23;;;;;;;;;;;11.70;67.20;;;7.04;100.00;93741.91;5009219;28;20019;-58
2022/11/17 04:51:53;;;;;;;;;;;11.60;67.10;;;7.07;100.00;93740.53;5008699;28;19935;-58
2022/11/17 04:54:23;;;;;;;;;;;11.70;67.20;;;7.02;100.00;93749.34;4992931;28;19909;-56
2022/11/17 04:56:54;;;;;;;;;;;11.60;67.10;;;7.03;100.00;93745.63;5009138;28;20374;-56
2022/11/17 04:59:21;;;;;;;;;;;11.60;67.20;;;7.04;100.00;93754.34;5003367;28;19917;-56
2022/11/17 05:01:47;;;;;;;;;;;11.60;67.30;;;7.01;100.00;93752.28;4989761;28;20291;-58
2022/11/17 05:07:17;;;;;;;;;;;11.60;67.30;;;7.02;100.00;93744.06;5001529;28;19916;-55
2022/11/17 05:09:45;;;;;;;;;;;11.60;67.30;;;7.09;100.00;93749.00;5011020;28;19909;-57
2022/11/17 05:14:55;;;;;;;;;;;11.60;67.50;;;7.09;100.00;93741.84;4994908;28;19935;-56
2022/11/17 05:17:27;;;;;;;;;;;11.70;67.50;;;7.11;100.00;93728.28;5017581;28;19913;-55
2022/11/17 05:19:52;;;;;;;;;;;11.60;67.60;;;7.12;100.00;93749.19;4990437;28;20283;-56
2022/11/17 05:25:08;;;;;;;;;;;11.60;67.60;;;7.17;100.00;93761.56;5013210;28;19916;-58
2022/11/17 05:27:34;;;;;;;;;;;11.60;67.60;;;7.18;100.00;93765.81;4995816;28;20310;-57
2022/11/17 05:30:07;;;;;;;;;;;11.70;67.60;;;7.10;100.00;93761.16;4996639;28;20310;-56
2022/11/17 05:32:33;;;;;;;;;;;11.70;67.60;;;7.05;100.00;93754.06;5013262;28;20260;-54
2022/11/17 05:34:58;;;;;;;;;;;11.60;67.50;;;6.97;100.00;93764.50;5011764;28;19915;-55
2022/11/17 05:37:24;;;;;;;;;;;11.70;67.50;;;6.97;100.00;93754.72;5013098;28;20012;-55
2022/11/17 05:39:53;;;;;;;;;;;11.60;67.50;;;6.98;100.00;93764.22;4995566;28;20039;-57
2022/11/17 05:42:21;;;;;;;;;;;11.60;67.60;;;7.00;100.00;93758.66;5013987;28;19951;-57
2022/11/17 05:44:50;;;;;;;;;;;11.60;67.60;;;7.02;100.00;93759.94;5012278;28;19912;-55
2022/11/17 05:47:16;;;;;;;;;;;11.60;67.70;;;7.03;100.00;93752.78;5014600;28;19910;-56
2022/11/17 05:49:41;;;;;;;;;;;11.60;67.80;;;7.07;100.00;93759.06;5000745;28;20359;-55
2022/11/17 05:52:07;;;;;;;;;;;11.60;68.00;;;7.14;100.00;93764.78;5012016;28;19923;-57
2022/11/17 05:54:33;;;;;;;;;;;11.70;68.10;;;7.21;100.00;93769.72;5012616;28;19909;-55
2022/11/17 05:57:20;;;;;;;;;;;11.70;68.30;;;7.28;100.00;93772.81;5027073;28;19939;-57
2022/11/17 05:59:59;;;;;;;;;;;11.70;68.30;;;7.31;100.00;93793.44;4993378;28;19953;-58
2022/11/17 06:02:50;;;;;;;;;;;11.70;68.20;;;7.35;100.00;93797.06;4992943;28;19910;-58
2022/11/17 06:05:22;;;;;;;;;;;11.70;68.20;;;7.33;100.00;93797.38;4992855;28;20256;-59
2022/11/17 06:07:50;;;;;;;;;;;11.80;68.20;;;7.34;100.00;93788.34;5012582;28;20529;-59
2022/11/17 06:10:16;;;;;;;;;;;11.80;68.20;;;7.38;100.00;93799.16;5008494;28;20022;-59
2022/11/17 06:12:42;;;;;;;;;;;11.80;68.20;;;7.40;100.00;93797.00;4993792;28;19913;-59
2022/11/17 06:15:11;;;;;;;;;;;11.80;68.20;;;7.46;100.00;93781.81;5009813;28;19960;-59
2022/11/17 06:17:55;;;;;;;;;;;11.90;68.30;;;7.48;100.00;93779.66;5012217;28;19916;-59
2022/11/17 06:20:31;;;;;;;;;;;11.80;68.10;;;7.49;100.00;93775.94;5012231;28;19913;-59
2022/11/17 06:23:02;;;;;;;;;;;11.90;68.10;;;7.50;100.00;93765.06;5011832;28;19996;-59
2022/11/17 06:25:29;;;;;;;;;;;11.90;68.00;;;7.46;100.00;93753.47;5022928;28;19913;-53
2022/11/17 06:27:59;;;;;;;;;;;11.90;67.80;;;7.45;100.00;93746.59;5001673;28;19913;-59
2022/11/17 06:30:26;;;;;;;;;;;11.90;67.80;;;7.34;100.00;93743.31;4993713;28;19914;-57
2022/11/17 06:32:52;;;;;;;;;;;11.80;67.70;;;7.30;100.00;93750.28;5007980;28;20291;-57
2022/11/17 06:35:22;;;;;;;;;;;11.80;67.60;;;7.27;100.00;93742.09;4993680;28;19968;-59
2022/11/17 06:37:51;;;;;;;;;;;11.70;67.60;;;7.22;100.00;93731.59;4991250;28;19920;-54
2022/11/17 06:40:17;;;;;;;;;;;11.70;67.60;;;7.19;100.00;93733.72;4998297;28;19955;-59
2022/11/17 06:45:37;;;;;;;;;;;11.60;67.80;;;7.11;100.00;93734.41;4997032;28;20390;-58
2022/11/17 06:48:04;;;;;;;;;;;11.60;67.70;;;7.08;100.00;93745.56;4996356;28;19913;-59
2022/11/17 06:50:31;;;;;;;;;;;11.60;67.80;;;7.04;100.00;93739.25;4991115;28;19917;-59
2022/11/17 06:53:04;;;;;;;;;;;11.50;67.70;;;7.03;100.00;93745.63;5007443;28;20391;-58
2022/11/17 06:55:33;;;;;;;;;;;11.50;67.70;;;7.02;100.00;93737.94;5010381;28;19917;-59
2022/11/17 06:58:10;;;;;;;;;;;11.50;67.70;;;6.94;100.00;93736.75;5019406;28;19942;-59
2022/11/17 07:00:37;;;;;;;;;;;11.50;67.70;;;6.89;100.00;93752.69;5031563;28;19936;-59
2022/11/17 07:03:07;;;;;;;;;;;11.40;67.60;;;6.89;100.00;93753.50;5013168;28;19909;-59
2022/11/17 07:05:38;;;;;;;;;;;11.40;67.70;;;6.89;100.00;93753.50;5018580;28;19913;-57
2022/11/17 07:08:07;;;;;;;;;;;11.40;67.90;;;6.92;100.00;93746.81;4981196;28;19909;-58
2022/11/17 07:10:34;;;;;;;;;;;11.40;68.00;;;6.92;100.00;93757.41;5010290;28;20363;-59
2022/11/17 07:13:00;;;;;;;;;;;11.40;68.00;;;6.96;100.00;93766.38;4997421;28;19924;-59
2022/11/17 07:15:26;;;;;;;;;;;11.40;68.10;;;7.01;100.00;93766.28;5028852;28;20437;-60
2022/11/17 07:17:57;;;;;;;;;;;11.40;68.20;;;7.01;100.00;93749.63;5013434;28;19928;-59
2022/11/17 07:20:26;;;;;;;;;;;11.50;68.20;;;6.98;100.00;93750.19;5014499;28;19909;-58
2022/11/17 07:22:58;;;;;;;;;;;11.50;68.00;;;6.90;100.00;93749.00;5024770;28;19913;-56
2022/11/17 07:25:24;;;;;;;;;;;11.50;68.00;;;6.90;100.00;93764.88;5011822;28;20347;-59
2022/11/17 07:28:21;;;;;;;;;;;11.50;67.90;;;6.95;100.00;93768.22;5029172;28;19951;-58
2022/11/17 07:30:55;;;;;;;;;;;11.50;68.00;;;6.97;100.00;93764.50;5030434;28;19963;-56
2022/11/17 07:33:22;;;;;;;;;;;11.50;68.00;;;6.92;100.00;93762.72;5012114;28;20612;-59
2022/11/17 07:35:48;;;;;;;;;;;11.50;68.70;;;6.89;100.00;93755.34;5030312;28;19951;-59
2022/11/17 07:38:14;;;;;;;;;;;11.50;67.90;;;6.91;100.00;93761.13;5010415;28;19913;-59
2022/11/17 07:40:42;;;;;;;;;;;11.50;67.80;;;6.85;100.00;93763.06;5029482;28;20009;-57
2022/11/17 07:43:08;;;;;;;;;;;11.50;67.80;;;6.84;100.00;93774.72;5014326;28;19908;-59
2022/11/17 07:45:35;;;;;;;;;;;11.50;67.70;;;6.83;100.00;93788.22;5009215;28;19909;-57
2022/11/17 07:48:04;;;;;;;;;;;11.50;67.60;;;6.82;100.00;93791.97;5024293;28;19913;-56
2022/11/17 07:50:32;;;;;;;;;;;11.50;67.70;;;6.85;100.00;93794.81;5031430;28;20354;-56
2022/11/17 07:52:57;;;;;;;;;;;11.60;67.90;;;6.98;100.00;93792.56;4997018;28;19913;-57
2022/11/17 07:55:24;;;;;;;;;;;11.60;68.00;;;7.04;100.00;93789.56;5010137;28;19915;-56
2022/11/17 07:58:01;;;;;;;;;;;11.70;68.00;;;7.15;100.00;93791.00;5017954;28;19925;-56
2022/11/17 08:00:30;;;;;;;;;;;11.90;68.00;;;7.31;100.00;93793.44;5010508;28;19913;-55
2022/11/17 08:03:01;;;;;;;;;;;12.10;68.00;;;7.47;100.00;93781.53;5012089;28;19913;-57
2022/11/17 08:05:29;;;;;;;;;;;12.30;67.90;;;7.58;100.00;93782.16;4993747;28;19909;-59
2022/11/17 08:07:58;;;;;;;;;;;12.50;67.80;;;7.75;100.00;93784.28;4992092;28;28940;-59
2022/11/17 08:10:31;;;;;;;;;;;12.70;67.60;;;7.90;100.00;93773.44;5012596;28;19909;-59
2022/11/17 08:13:00;;;;;;;;;;;12.90;67.50;;;8.01;100.00;93777.47;5014487;28;19912;-58
2022/11/17 08:15:30;;;;;;;;;;;13.00;67.40;;;8.14;98.61;93778.56;5030121;28;19924;-60
2022/11/17 08:18:00;;;;;;;;;;;13.10;67.30;;;8.30;93.22;93774.56;5013362;28;19947;-59
2022/11/17 08:20:28;;;;;;;;;;;13.20;67.20;;;8.56;92.48;93779.44;5013271;28;20160;-60
2022/11/17 08:22:54;;;;;;;;;;;13.40;67.20;;;8.86;88.62;93785.19;5023376;28;19909;-58
2022/11/17 08:25:26;;;;;;;;;;;13.50;67.00;;;9.18;87.11;93803.66;5025864;28;20390;-60
2022/11/17 08:27:57;;;;;;;;;;;13.70;66.90;;;9.35;85.41;93797.69;5000389;28;19912;-59
2022/11/17 08:30:30;;;;;;;;;;;13.80;66.60;;;9.52;86.26;93799.72;5030639;28;20011;-56
2022/11/17 08:32:56;;;;;;;;;;;14.10;66.40;;;9.70;84.80;93806.72;5012716;28;19908;-57
2022/11/17 08:35:24;;;;;;;;;;;14.40;66.10;;;9.86;83.99;93809.03;5014957;28;19940;-56
2022/11/17 08:37:51;;;;;;;;;;;14.60;65.70;;;9.96;81.62;93808.78;5009601;28;20004;-59
2022/11/17 08:40:18;;;;;;;;;;;14.80;65.20;;;10.04;81.51;93808.06;4976176;28;19936;-60
2022/11/17 08:42:51;;;;;;;;;;;14.90;64.80;;;10.10;79.30;93806.84;5009840;28;19948;-60
2022/11/17 08:45:17;;;;;;;;;;;15.00;64.50;;;10.16;79.70;93824.25;5011935;28;19920;-58
2022/11/17 08:47:43;;;;;;;;;;;15.10;64.30;;;10.23;78.56;93815.06;5020668;28;19909;-59
2022/11/17 08:50:12;;;;;;;;;;;15.10;64.80;;;10.32;76.87;93823.91;5009338;28;19916;-60
2022/11/17 08:52:47;;;;;;;;;;;15.20;63.80;;;10.47;75.20;93817.41;5012275;28;20275;-60
2022/11/17 08:55:13;;;;;;;;;;;15.30;63.40;;;10.59;73.40;93830.91;5012289;28;20011;-59
2022/11/17 08:57:42;;;;;;;;;;;15.50;63.00;;;10.97;72.15;93828.56;5028993;28;20003;-60
2022/11/17 09:00:12;;;;;;;;;;;15.90;62.20;;;11.45;71.75;93841.06;5009473;28;19909;-58
2022/11/17 09:02:37;;;;;;;;;;;16.50;61.50;;;11.61;70.22;93848.59;5009502;28;19909;-59
2022/11/17 09:05:05;;;;;;;;;;;16.80;60.70;;;11.67;68.83;93834.00;5020698;28;19916;-59
2022/11/17 09:07:34;;;;;;;;;;;16.80;60.30;;;11.53;68.87;93845.63;5010975;28;20364;-59
2022/11/17 09:10:05;;;;;;;;;;;16.80;59.30;;;11.52;67.34;93844.03;5008828;28;20066;-56
2022/11/17 09:12:31;;;;;;;;;;;16.80;59.00;;;11.54;67.95;93847.19;4993224;28;20457;-59
2022/11/17 09:14:57;;;;;;;;;;;16.80;58.60;;;11.50;68.64;93846.25;5025457;28;19909;-59
2022/11/17 09:17:26;;;;;;;;;;;16.70;58.30;;;11.46;66.87;93847.94;5027447;28;19915;-60
2022/11/17 09:19:51;;;;;;;;;;;16.70;58.10;;;11.54;66.77;93838.41;5010457;28;19924;-59
2022/11/17 09:22:23;;;;;;;;;;;16.70;57.80;;;11.61;66.63;93856.59;5019667;28;19920;-58
2022/11/17 09:24:49;;;;;;;;;;;16.80;57.70;;;11.68;67.33;93862.25;5029958;28;20022;-59
2022/11/17 09:27:17;;;;;;;;;;;16.80;57.30;;;11.73;65.92;93851.44;5028094;28;20011;-57
2022/11/17 09:30:02;;;;;;;;;;;16.80;57.30;;;11.75;66.25;93857.22;4992825;28;19909;-60
2022/11/17 09:32:28;;;;;;;;;;;16.90;57.40;;;11.79;65.85;93866.97;5007522;28;19920;-59
2022/11/17 09:34:54;;;;;;;;;;;17.00;57.10;;;11.89;66.85;93857.13;4991501;28;20383;-59
2022/11/17 09:37:25;;;;;;;;;;;17.00;57.10;;;11.94;67.64;93871.09;5009443;28;19909;-60
2022/11/17 09:39:53;;;;;;;;;;;17.10;57.20;;;11.94;69.22;93875.63;5016622;28;19916;-59
2022/11/17 09:42:21;;;;;;;;;;;17.20;57.20;;;11.77;70.79;93874.50;5009182;28;20153;-60
2022/11/17 09:44:53;;;;;;;;;;;17.20;57.00;;;11.76;71.41;93870.25;5008756;28;19909;-58
2022/11/17 09:47:37;;;;;;;;;;;17.20;57.00;;;11.71;71.91;93874.97;5011113;28;20379;-58
2022/11/17 09:50:23;;;;;;;;;;;17.20;57.10;;;11.71;71.66;93883.75;5028508;28;19908;-59
2022/11/17 09:53:23;;;;;;;;;;;17.20;57.10;;;11.73;70.29;93878.88;4992112;28;19913;-59
2022/11/17 09:56:06;;;;;;;;;;;17.30;57.10;;;11.74;71.21;93890.34;5000293;28;19935;-57
2022/11/17 09:58:48;;;;;;;;;;;17.40;56.90;;;11.82;71.40;93898.34;5020712;23;19928;-51
2022/11/17 10:01:18;;;;;;;;;;;17.40;56.80;;;11.84;71.33;93897.25;4993063;28;19913;-48
2022/11/17 10:03:48;;;;;;;;;;;17.40;56.80;;;11.85;71.37;93898.88;4997239;28;19913;-47
2022/11/17 10:06:24;;;;;;;;;;;17.40;56.90;;;11.84;71.77;93899.91;4998177;28;19924;-47
2022/11/17 10:09:26;;;;;;;;;;;17.40;56.80;;;11.88;72.09;93904.34;4992903;28;19960;-50
2022/11/17 10:12:20;;;;;;;;;;;17.30;56.80;;;11.92;73.12;93905.28;5021369;28;19917;-49
2022/11/17 10:14:50;;;;;;;;;;;17.30;56.90;;;12.02;73.55;93912.19;4995938;28;20364;-48
2022/11/17 10:17:19;;;;;;;;;;;17.40;57.00;;;12.02;72.87;93893.53;5011053;28;19913;-52
2022/11/17 10:19:54;;;;;;;;;;;17.40;57.00;;;12.08;72.97;93905.63;4992188;28;20063;-47
2022/11/17 10:22:40;;;;;;;;;;;17.60;57.00;;;12.18;74.56;93886.59;5004440;28;19913;-47
2022/11/17 10:25:39;;;;;;;;;;;17.70;56.90;;;12.25;73.65;93883.44;4999023;28;19916;-47
2022/11/17 10:28:21;;;;;;;;;;;17.80;56.90;;;12.19;73.13;93877.50;5007783;28;20315;-47
2022/11/17 10:31:15;;;;;;;;;;;17.90;56.60;;;12.41;73.04;93879.22;4990714;28;19921;-51
2022/11/17 10:33:50;;;;;;;;;;;18.00;56.60;;;12.43;69.99;93885.00;5007422;28;19909;-47
2022/11/17 10:36:32;;;;;;;;;;;18.10;56.60;;;12.50;69.31;93884.50;5010566;28;19909;-53
2022/11/17 10:38:59;;;;;;;;;;;18.20;56.40;;;12.76;68.80;93873.00;4998928;28;20407;-57
2022/11/17 10:41:40;;;;;;;;;;;18.40;56.20;;;12.93;68.62;93873.72;5011160;28;19916;-48
2022/11/17 10:44:24;;;;;;;;;;;18.60;56.20;;;12.99;68.60;93877.00;5010314;28;19915;-50
2022/11/17 10:46:59;;;;;;;;;;;18.60;56.00;;;12.84;67.92;93862.28;4994067;28;19913;-47
2022/11/17 10:49:52;;;;;;;;;;;18.70;55.60;;;12.78;66.18;93870.78;5005977;28;20429;-49
2022/11/17 10:52:22;;;;;;;;;;;18.80;55.00;;;12.98;67.07;93878.09;5008486;28;19921;-50
2022/11/17 10:54:48;;;;;;;;;;;18.90;54.90;;;12.99;63.76;93882.34;4996780;28;19952;-48
2022/11/17 10:57:25;;;;;;;;;;;19.00;54.40;;;13.10;64.58;93874.75;5000708;28;19913;-46
2022/11/17 10:59:58;;;;;;;;;;;19.00;53.80;;;13.12;64.26;93880.56;5004640;28;20331;-48
2022/11/17 11:02:33;;;;;;;;;;;19.00;53.60;;;13.16;65.45;93882.28;4990270;28;19910;-49
2022/11/17 11:05:21;;;;;;;;;;;18.90;53.50;;;12.98;63.29;93888.03;5005907;28;19916;-50
2022/11/17 11:07:51;;;;;;;;;;;18.80;53.00;;;12.91;64.53;93891.16;5008964;28;20342;-48
2022/11/17 11:10:34;;;;;;;;;;;18.80;52.60;;;12.85;62.12;93873.75;4988243;28;19910;-47
2022/11/17 11:13:21;;;;;;;;;;;18.90;51.40;;;12.91;61.32;93870.59;4997243;28;20008;-47
2022/11/17 11:15:47;;;;;;;;;;;19.10;50.40;;;13.16;60.12;93866.25;5000694;28;19920;-49
2022/11/17 11:18:29;;;;;;;;;;;19.40;50.20;;;13.22;59.42;93848.09;5011547;28;20309;-48
2022/11/17 11:21:41;;;;;;;;;;;19.50;49.80;;;13.29;61.25;93847.66;5011724;28;20008;-47
2022/11/17 11:24:48;;;;;;;;;;;19.50;49.60;;;13.37;59.93;93850.25;5006028;28;19921;-46
2022/11/17 11:27:26;;;;;;;;;;;19.70;49.40;;;13.40;59.63;93830.88;4934015;28;19913;-47
2022/11/17 11:30:14;;;;;;;;;;;19.80;49.20;;;13.36;60.00;93835.34;5005873;28;19920;-52
2022/11/17 11:33:18;;;;;;;;;;;19.80;48.90;;;13.30;60.35;93833.94;4987396;28;19913;-47
2022/11/17 11:36:19;;;;;;;;;;;19.80;48.70;;;13.28;60.49;93820.09;4991908;28;19910;-48
2022/11/17 11:39:44;;;;;;;;;;;19.80;48.60;;;13.33;60.08;93835.19;4991322;28;20283;-46
2022/11/17 11:42:17;;;;;;;;;;;19.70;48.40;;;13.29;60.34;93842.31;4976573;28;19943;-51
2022/11/17 11:44:59;;;;;;;;;;;19.70;48.60;;;13.32;59.78;93845.13;4991830;28;20000;-47
2022/11/17 11:47:49;;;;;;;;;;;19.60;48.60;;;13.40;60.29;93849.63;5020683;28;19955;-47
2022/11/17 11:50:32;;;;;;;;;;;19.60;48.80;;;13.43;60.91;93851.63;5003180;28;19916;-47
2022/11/17 11:53:39;;;;;;;;;;;19.60;48.90;;;13.52;59.28;93843.56;4998283;28;19914;-51
2022/11/17 11:56:31;;;;;;;;;;;19.50;49.20;;;13.32;60.28;93845.13;4990506;28;19913;-49
2022/11/17 11:59:13;;;;;;;;;;;19.30;48.90;;;13.33;60.18;93835.97;5003633;28;19925;-50
2022/11/17 12:02:18;;;;;;;;;;;19.30;49.00;;;13.31;60.45;93834.72;5010756;28;20392;-47
2022/11/17 12:05:30;;;;;;;;;;;19.20;48.80;;;13.43;61.49;93842.84;4994020;28;20427;-46
2022/11/17 12:08:27;;;;;;;;;;;19.20;49.10;;;13.33;60.68;93849.34;5002717;28;19916;-50
2022/11/17 12:14:06;;;;;;;;;;;19.00;49.20;;;13.38;60.75;93848.38;5009974;28;20497;-50
2022/11/17 12:16:41;;;;;;;;;;;19.00;49.50;;;13.37;61.09;93839.56;4992524;28;19909;-52
2022/11/17 12:19:53;;;;;;;;;;;19.00;49.60;;;13.36;60.48;93845.25;5009667;28;20003;-47
2022/11/17 12:22:48;;;;;;;;;;;19.00;49.70;;;13.29;61.40;93844.97;5008594;28;20330;-47
2022/11/17 12:25:19;;;;;;;;;;;18.90;49.50;;;13.32;61.63;93845.13;5025158;28;20007;-47
2022/11/17 12:27:53;;;;;;;;;;;18.90;49.60;;;13.30;62.31;93844.66;5007733;28;19909;-51
2022/11/17 12:30:39;;;;;;;;;;;18.80;49.60;;;13.41;62.41;93851.19;5009476;28;20433;-47